createdAt,value
2019-01-21T00:00:46.327Z,100.00
2019-01-21T00:03:14.656Z,100.00
2019-01-21T00:05:42.057Z,100.00
2019-01-21T00:08:09.157Z,100.00
2019-01-21T00:10:36.198Z,100.00
2019-01-21T00:13:03.696Z,100.00
2019-01-21T00:15:30.967Z,100.00
2019-01-21T00:17:57.991Z,100.00
2019-01-21T00:20:25.049Z,100.00
2019-01-21T00:22:52.123Z,100.00
2019-01-21T00:25:19.168Z,100.00
2019-01-21T00:27:46.215Z,100.00
2019-01-21T00:30:13.339Z,100.00
2019-01-21T00:32:40.416Z,100.00
2019-01-21T00:35:08.378Z,100.00
2019-01-21T00:37:35.568Z,100.00
2019-01-21T00:40:03.506Z,100.00
2019-01-21T00:42:30.537Z,100.00
2019-01-21T00:44:57.938Z,100.00
2019-01-21T00:47:29.840Z,100.00
2019-01-21T00:49:53.913Z,100.00
2019-01-21T00:52:21.001Z,100.00
2019-01-21T00:54:48.031Z,100.00
2019-01-21T00:57:15.410Z,100.00
2019-01-21T00:59:42.504Z,100.00
2019-01-21T01:02:09.635Z,100.00
2019-01-21T01:04:36.677Z,100.00
2019-01-21T01:07:03.788Z,100.00
2019-01-21T01:09:30.863Z,100.00
2019-01-21T01:11:58.072Z,100.00
2019-01-21T01:14:25.111Z,100.00
2019-01-21T01:16:52.214Z,100.00
2019-01-21T01:19:19.275Z,100.00
2019-01-21T01:21:46.309Z,100.00
2019-01-21T01:24:14.576Z,100.00
2019-01-21T01:26:41.613Z,100.00
2019-01-21T01:29:08.645Z,100.00
2019-01-21T01:31:35.716Z,100.00
2019-01-21T01:34:02.750Z,100.00
2019-01-21T01:36:29.793Z,100.00
2019-01-21T01:41:37.348Z,100.00
2019-01-21T01:44:04.403Z,100.00
2019-01-21T01:46:31.507Z,100.00
2019-01-21T01:48:58.989Z,100.00
2019-01-21T01:51:26.150Z,100.00
2019-01-21T01:53:53.314Z,100.00
2019-01-21T01:56:40.668Z,100.00
2019-01-21T01:59:08.198Z,100.00
2019-01-21T02:01:35.244Z,100.00
2019-01-21T02:04:02.318Z,100.00
2019-01-21T02:06:29.945Z,100.00
2019-01-21T02:08:57.040Z,100.00
2019-01-21T02:11:24.128Z,100.00
2019-01-21T02:13:51.484Z,100.00
2019-01-21T02:16:18.532Z,100.00
2019-01-21T02:18:45.635Z,100.00
2019-01-21T02:21:12.700Z,100.00
2019-01-21T02:23:43.916Z,100.00
2019-01-21T02:26:21.588Z,100.00
2019-01-21T02:29:16.996Z,100.00
2019-01-21T02:32:29.015Z,100.00
2019-01-21T02:35:36.239Z,100.00
2019-01-21T02:38:41.473Z,100.00
2019-01-21T02:42:01.567Z,100.00
2019-01-21T02:44:58.382Z,100.00
2019-01-21T02:47:37.274Z,100.00
2019-01-21T02:50:26.779Z,100.00
2019-01-21T02:53:33.026Z,100.00
2019-01-21T02:56:30.668Z,100.00
2019-01-21T02:59:34.542Z,100.00
2019-01-21T03:02:45.286Z,100.00
2019-01-21T03:06:11.627Z,100.00
2019-01-21T03:09:31.378Z,100.00
2019-01-21T03:12:36.029Z,100.00
2019-01-21T03:16:09.685Z,100.00
2019-01-21T03:19:16.794Z,100.00
2019-01-21T03:22:06.989Z,100.00
2019-01-21T03:25:14.553Z,100.00
2019-01-21T03:28:19.440Z,100.00
2019-01-21T03:31:44.087Z,100.00
2019-01-21T03:34:37.177Z,100.00
2019-01-21T03:38:10.421Z,100.00
2019-01-21T03:41:08.836Z,100.00
2019-01-21T03:44:00.688Z,100.00
2019-01-21T03:47:06.443Z,100.00
2019-01-21T03:49:44.161Z,100.00
2019-01-21T03:52:49.010Z,100.00
2019-01-21T03:55:17.397Z,100.00
2019-01-21T03:58:35.570Z,100.00
2019-01-21T04:01:36.968Z,100.00
2019-01-21T04:04:54.445Z,100.00
2019-01-21T04:08:05.061Z,100.00
2019-01-21T04:11:29.241Z,100.00
2019-01-21T04:14:31.185Z,100.00
2019-01-21T04:17:49.063Z,100.00
2019-01-21T04:20:49.139Z,100.00
2019-01-21T04:23:58.086Z,100.00
2019-01-21T04:27:03.908Z,100.00
2019-01-21T04:30:03.835Z,100.00
2019-01-21T04:33:24.800Z,100.00
2019-01-21T04:36:10.429Z,100.00
2019-01-21T04:39:07.164Z,100.00
2019-01-21T04:42:24.683Z,100.00
2019-01-21T04:45:33.102Z,100.00
2019-01-21T04:48:15.454Z,100.00
2019-01-21T04:51:17.525Z,100.00
2019-01-21T04:54:23.195Z,100.00
2019-01-21T04:57:19.322Z,100.00
2019-01-21T05:00:13.115Z,100.00
2019-01-21T05:03:09.479Z,100.00
2019-01-21T05:05:48.837Z,100.00
2019-01-21T05:08:56.822Z,100.00
2019-01-21T05:12:01.407Z,100.00
2019-01-21T05:15:05.800Z,100.00
2019-01-21T05:18:13.901Z,100.00
2019-01-21T05:21:30.059Z,100.00
2019-01-21T05:24:11.366Z,100.00
2019-01-21T05:27:14.957Z,100.00
2019-01-21T05:29:58.593Z,100.00
2019-01-21T05:33:26.018Z,100.00
2019-01-21T05:36:47.057Z,100.00
2019-01-21T05:39:58.818Z,100.00
2019-01-21T05:43:35.389Z,100.00
2019-01-21T05:46:53.295Z,100.00
2019-01-21T05:49:44.795Z,100.00
2019-01-21T05:53:00.056Z,100.00
2019-01-21T05:55:55.675Z,100.00
2019-01-21T05:59:03.424Z,100.00
2019-01-21T06:02:21.601Z,100.00
2019-01-21T06:05:39.362Z,100.00
2019-01-21T06:08:53.942Z,100.00
2019-01-21T06:11:40.347Z,100.00
2019-01-21T06:14:36.143Z,100.00
2019-01-21T06:17:44.050Z,100.00
2019-01-21T06:21:02.238Z,100.00
2019-01-21T06:23:56.616Z,100.00
2019-01-21T06:27:06.104Z,100.00
2019-01-21T06:29:49.863Z,100.00
2019-01-21T06:33:16.806Z,100.00
2019-01-21T06:36:20.066Z,100.00
2019-01-21T06:39:53.491Z,100.00
2019-01-21T06:43:03.691Z,100.00
2019-01-21T06:46:16.446Z,100.00
2019-01-21T06:49:10.222Z,100.00
2019-01-21T06:52:24.269Z,100.00
2019-01-21T06:55:11.282Z,100.00
2019-01-21T06:58:15.953Z,100.00
2019-01-21T07:01:23.806Z,100.00
2019-01-21T07:04:35.696Z,100.00
2019-01-21T07:07:41.730Z,100.00
2019-01-21T07:10:52.667Z,100.00
2019-01-21T07:14:12.881Z,100.00
2019-01-21T07:17:27.823Z,100.00
2019-01-21T07:20:42.360Z,100.00
2019-01-21T07:24:05.941Z,100.00
2019-01-21T07:27:09.690Z,100.00
2019-01-21T07:30:04.386Z,100.00
2019-01-21T07:32:45.634Z,100.00
2019-01-21T07:35:49.793Z,100.00
2019-01-21T07:38:41.019Z,100.00
2019-01-21T07:41:34.148Z,100.00
2019-01-21T07:44:15.206Z,100.00
2019-01-21T07:47:30.079Z,100.00
2019-01-21T07:50:50.376Z,100.00
2019-01-21T07:53:49.111Z,100.00
2019-01-21T07:57:00.275Z,100.00
2019-01-21T08:00:22.161Z,100.00
2019-01-21T08:03:18.754Z,100.00
2019-01-21T08:06:27.275Z,100.00
2019-01-21T08:09:36.095Z,100.00
2019-01-21T08:12:25.916Z,100.00
2019-01-21T08:15:28.619Z,100.00
2019-01-21T08:18:33.384Z,100.00
2019-01-21T08:21:08.308Z,100.00
2019-01-21T08:23:51.600Z,100.00
2019-01-21T08:27:02.567Z,100.00
2019-01-21T08:30:05.537Z,100.00
2019-01-21T08:32:58.731Z,100.00
2019-01-21T08:36:04.142Z,100.00
2019-01-21T08:39:11.425Z,100.00
2019-01-21T08:42:00.990Z,100.00
2019-01-21T08:45:02.000Z,100.00
2019-01-21T08:48:01.419Z,100.00
2019-01-21T08:51:06.462Z,100.00
2019-01-21T08:54:09.025Z,100.00
2019-01-21T08:57:36.135Z,100.00
2019-01-21T09:01:00.247Z,100.00
2019-01-21T09:03:42.221Z,100.00
2019-01-21T09:06:37.257Z,100.00
2019-01-21T09:09:28.814Z,100.00
2019-01-21T09:12:32.837Z,100.00
2019-01-21T09:15:25.361Z,100.00
2019-01-21T09:18:33.054Z,100.00
2019-01-21T09:21:54.242Z,100.00
2019-01-21T09:24:47.290Z,100.00
2019-01-21T09:27:52.733Z,100.00
2019-01-21T09:30:54.096Z,100.00
2019-01-21T09:33:48.808Z,100.00
2019-01-21T09:37:02.821Z,100.00
2019-01-21T09:39:59.595Z,100.00
2019-01-21T09:43:08.661Z,100.00
2019-01-21T09:46:12.681Z,100.00
2019-01-21T09:48:38.699Z,100.00
2019-01-21T09:51:05.738Z,100.00
2019-01-21T09:53:34.447Z,100.00
2019-01-21T09:56:02.022Z,100.00
2019-01-21T09:58:31.944Z,100.00
2019-01-21T10:00:59.229Z,100.00
2019-01-21T10:03:26.981Z,100.00
2019-01-21T10:05:58.612Z,100.00
2019-01-21T10:08:53.072Z,100.00
2019-01-21T10:11:53.388Z,100.00
2019-01-21T10:14:46.153Z,100.00
2019-01-21T10:17:43.944Z,100.00
2019-01-21T10:20:38.114Z,100.00
2019-01-21T10:23:26.522Z,100.00
2019-01-21T10:26:28.541Z,100.00
2019-01-21T10:29:12.666Z,100.00
2019-01-21T10:32:17.647Z,100.00
2019-01-21T10:35:22.393Z,100.00
2019-01-21T10:38:28.413Z,100.00
2019-01-21T10:41:26.149Z,100.00
2019-01-21T10:44:32.197Z,100.00
2019-01-21T10:47:22.471Z,100.00
2019-01-21T10:50:29.986Z,100.00
2019-01-21T10:53:14.635Z,100.00
2019-01-21T10:56:25.489Z,100.00
2019-01-21T10:59:32.560Z,100.00
2019-01-21T11:02:33.437Z,100.00
2019-01-21T11:05:38.796Z,100.00
2019-01-21T11:08:31.536Z,100.00
2019-01-21T11:11:25.183Z,100.00
2019-01-21T11:14:58.543Z,100.00
2019-01-21T11:17:45.105Z,100.00
2019-01-21T11:21:00.891Z,100.00
2019-01-21T11:24:13.558Z,100.00
2019-01-21T11:27:14.871Z,100.00
2019-01-21T11:29:56.315Z,100.00
2019-01-21T11:32:59.324Z,100.00
2019-01-21T11:36:05.253Z,100.00
2019-01-21T11:39:00.602Z,100.00
2019-01-21T11:41:51.642Z,100.00
2019-01-21T11:45:07.486Z,100.00
2019-01-21T11:48:24.668Z,100.00
2019-01-21T11:51:33.562Z,100.00
2019-01-21T11:54:35.448Z,100.00
2019-01-21T11:57:25.377Z,100.00
2019-01-21T12:00:09.902Z,100.00
2019-01-21T12:03:03.696Z,100.00
2019-01-21T12:05:42.260Z,100.00
2019-01-21T12:08:53.152Z,100.00
2019-01-21T12:11:46.186Z,100.00
2019-01-21T12:15:09.765Z,96.57
2019-01-21T12:18:09.350Z,97.35
2019-01-21T12:21:23.329Z,94.61
2019-01-21T12:24:18.804Z,98.24
2019-01-21T12:27:19.996Z,96.48
2019-01-21T12:30:13.784Z,95.79
2019-01-21T12:33:18.414Z,95.64
2019-01-21T12:35:58.437Z,93.22
2019-01-21T12:39:05.935Z,92.82
2019-01-21T12:42:23.748Z,93.63
2019-01-21T12:45:43.882Z,94.28
2019-01-21T12:48:58.881Z,92.72
2019-01-21T12:52:13.417Z,95.81
2019-01-21T12:55:18.478Z,93.86
2019-01-21T13:02:09.295Z,93.64
2019-01-21T13:04:59.413Z,95.05
2019-01-21T13:07:46.636Z,92.85
2019-01-21T13:10:37.356Z,92.83
2019-01-21T13:14:01.752Z,93.19
2019-01-21T13:16:51.219Z,93.34
2019-01-21T13:19:33.399Z,89.84
2019-01-21T13:22:51.315Z,90.09
2019-01-21T13:25:51.136Z,91.32
2019-01-21T13:28:52.650Z,93.07
2019-01-21T13:31:57.091Z,94.44
2019-01-21T13:35:01.328Z,96.38
2019-01-21T13:38:16.197Z,91.47
2019-01-21T13:41:23.941Z,96.03
2019-01-21T13:44:22.823Z,97.02
2019-01-21T13:47:42.692Z,92.07
2019-01-21T13:50:37.175Z,92.99
2019-01-21T13:53:48.752Z,91.62
2019-01-21T13:56:39.752Z,91.11
2019-01-21T13:59:40.491Z,86.21
2019-01-21T14:02:26.264Z,84.02
2019-01-21T14:05:35.749Z,85.06
2019-01-21T14:08:24.270Z,86.80
2019-01-21T14:11:08.241Z,86.26
2019-01-21T14:14:20.232Z,86.37
2019-01-21T14:18:08.827Z,86.75
2019-01-21T14:20:46.675Z,86.11
2019-01-21T14:23:30.228Z,82.82
2019-01-21T14:26:32.767Z,81.67
2019-01-21T14:29:12.815Z,82.45
2019-01-21T14:32:16.085Z,84.25
2019-01-21T14:35:23.804Z,82.81
2019-01-21T14:38:40.556Z,82.93
2019-01-21T14:41:30.683Z,83.09
2019-01-21T14:48:06.215Z,82.00
2019-01-21T14:51:17.097Z,80.71
2019-01-21T14:54:07.290Z,81.24
2019-01-21T14:57:23.978Z,80.56
2019-01-21T15:00:39.296Z,77.94
2019-01-21T15:03:35.111Z,78.91
2019-01-21T15:06:43.340Z,78.46
2019-01-21T15:09:55.213Z,77.36
2019-01-21T15:12:53.071Z,77.02
2019-01-21T15:16:03.539Z,77.43
2019-01-21T15:19:01.390Z,76.45
2019-01-21T15:22:01.169Z,77.86
2019-01-21T15:25:22.449Z,79.36
2019-01-21T15:28:52.481Z,79.65
2019-01-21T15:31:56.169Z,79.50
2019-01-21T15:35:20.754Z,80.43
2019-01-21T15:38:09.174Z,80.10
2019-01-21T15:40:54.962Z,80.49
2019-01-21T15:43:45.262Z,80.99
2019-01-21T15:46:50.172Z,80.84
2019-01-21T15:49:35.550Z,81.73
2019-01-21T15:52:34.038Z,82.15
2019-01-21T15:55:17.050Z,82.71
2019-01-21T15:58:40.707Z,83.39
2019-01-21T16:01:33.983Z,83.68
2019-01-21T16:04:09.661Z,84.30
2019-01-21T16:07:02.824Z,85.15
2019-01-21T16:10:05.841Z,85.88
2019-01-21T16:13:08.142Z,86.80
2019-01-21T16:16:11.339Z,88.64
2019-01-21T16:18:52.434Z,89.41
2019-01-21T16:22:12.516Z,89.61
2019-01-21T16:25:06.352Z,90.98
2019-01-21T16:28:14.408Z,92.26
2019-01-21T16:31:03.501Z,92.73
2019-01-21T16:33:58.522Z,93.80
2019-01-21T16:37:01.332Z,94.41
2019-01-21T16:40:21.767Z,94.34
2019-01-21T16:42:48.954Z,95.34
2019-01-21T16:45:16.006Z,95.85
2019-01-21T16:47:43.118Z,95.76
2019-01-21T16:50:10.170Z,95.89
2019-01-21T16:52:37.331Z,96.27
2019-01-21T16:55:04.713Z,96.05
2019-01-21T16:57:31.774Z,96.70
2019-01-21T16:59:58.857Z,97.17
2019-01-21T17:02:26.029Z,97.83
2019-01-21T17:04:53.168Z,98.37
2019-01-21T17:07:20.215Z,98.40
2019-01-21T17:09:47.322Z,98.92
2019-01-21T17:12:14.363Z,99.02
2019-01-21T17:14:41.457Z,99.61
2019-01-21T17:17:08.568Z,100.00
2019-01-21T17:19:35.637Z,100.00
2019-01-21T17:22:21.281Z,100.00
2019-01-21T17:24:49.362Z,100.00
2019-01-21T17:27:16.407Z,100.00
2019-01-21T17:29:43.493Z,100.00
2019-01-21T17:32:10.524Z,100.00
2019-01-21T17:34:37.604Z,100.00
2019-01-21T17:37:04.729Z,100.00
2019-01-21T17:39:31.797Z,100.00
2019-01-21T17:41:58.869Z,100.00
2019-01-21T17:44:25.962Z,100.00
2019-01-21T17:46:53.023Z,100.00
2019-01-21T17:49:20.312Z,100.00
2019-01-21T17:51:47.498Z,100.00
2019-01-21T17:54:14.642Z,100.00
2019-01-21T17:56:41.740Z,100.00
2019-01-21T17:59:08.822Z,100.00
2019-01-21T18:01:39.324Z,100.00
2019-01-21T18:04:04.947Z,100.00
2019-01-21T18:06:34.779Z,100.00
2019-01-21T18:09:02.203Z,100.00
2019-01-21T18:11:29.430Z,100.00
2019-01-21T18:13:56.519Z,100.00
2019-01-21T18:16:23.741Z,100.00
2019-01-21T18:18:50.990Z,100.00
2019-01-21T18:21:18.078Z,100.00
2019-01-21T18:27:25.329Z,100.00
2019-01-21T18:29:52.537Z,100.00
2019-01-21T18:32:19.592Z,100.00
2019-01-21T18:34:46.782Z,100.00
2019-01-21T18:37:13.918Z,100.00
2019-01-21T18:39:40.956Z,100.00
2019-01-21T18:42:08.463Z,100.00
2019-01-21T18:44:35.762Z,100.00
2019-01-21T18:47:03.022Z,100.00
2019-01-21T18:49:30.166Z,100.00
2019-01-21T18:51:57.413Z,100.00
2019-01-21T18:54:24.481Z,100.00
2019-01-21T18:56:51.745Z,100.00
2019-01-21T19:03:01.309Z,100.00
2019-01-21T19:05:28.379Z,100.00
2019-01-21T19:07:55.451Z,100.00
2019-01-21T19:10:22.570Z,100.00
2019-01-21T19:13:08.262Z,100.00
2019-01-21T19:15:36.681Z,100.00
2019-01-21T19:18:04.023Z,100.00
2019-01-21T19:20:31.145Z,100.00
2019-01-21T19:22:59.980Z,100.00
2019-01-21T19:25:27.091Z,100.00
2019-01-21T19:27:54.191Z,100.00
2019-01-21T19:30:23.475Z,100.00
2019-01-21T19:32:50.569Z,100.00
2019-01-21T19:35:20.806Z,100.00
2019-01-21T19:37:49.312Z,100.00
2019-01-21T19:40:18.552Z,100.00
2019-01-21T19:42:45.642Z,100.00
2019-01-21T19:45:13.096Z,100.00
2019-01-21T19:47:40.255Z,100.00
2019-01-21T19:50:08.203Z,100.00
2019-01-21T19:52:35.294Z,100.00
2019-01-21T19:55:02.998Z,100.00
2019-01-21T19:57:30.232Z,100.00
2019-01-21T19:59:57.299Z,100.00
2019-01-21T20:02:24.674Z,100.00
2019-01-21T20:04:51.779Z,100.00
2019-01-21T20:07:18.973Z,100.00
2019-01-21T20:09:46.061Z,100.00
2019-01-21T20:12:14.301Z,100.00
2019-01-21T20:14:41.445Z,100.00
2019-01-21T20:17:08.522Z,100.00
2019-01-21T20:19:35.625Z,100.00
2019-01-21T20:22:07.303Z,100.00
2019-01-21T20:24:32.123Z,100.00
2019-01-21T20:26:59.226Z,100.00
2019-01-21T20:29:26.378Z,100.00
2019-01-21T20:31:53.775Z,100.00
2019-01-21T20:34:20.926Z,100.00
2019-01-21T20:36:48.070Z,100.00
2019-01-21T20:39:15.272Z,100.00
2019-01-21T20:41:42.336Z,100.00
2019-01-21T20:44:09.358Z,100.00
2019-01-21T20:46:36.465Z,100.00
2019-01-21T20:49:03.958Z,100.00
2019-01-21T20:51:31.038Z,100.00
2019-01-21T20:53:58.170Z,100.00
2019-01-21T20:56:25.284Z,100.00
2019-01-21T20:58:52.356Z,100.00
2019-01-21T21:01:19.490Z,100.00
2019-01-21T21:03:46.873Z,100.00
2019-01-21T21:06:13.999Z,100.00
2019-01-21T21:08:41.069Z,100.00
2019-01-21T21:11:08.086Z,100.00
2019-01-21T21:13:35.188Z,100.00
2019-01-21T21:16:02.330Z,100.00
2019-01-21T21:18:29.493Z,100.00
2019-01-21T21:20:56.632Z,100.00
2019-01-21T21:23:23.786Z,100.00
2019-01-21T21:25:50.842Z,100.00
2019-01-21T21:28:18.063Z,100.00
2019-01-21T21:31:22.060Z,100.00
2019-01-21T21:33:49.128Z,100.00
2019-01-21T21:36:16.175Z,100.00
2019-01-21T21:38:43.714Z,100.00
2019-01-21T21:41:10.868Z,100.00
2019-01-21T21:43:38.112Z,100.00
2019-01-21T21:46:05.757Z,100.00
2019-01-21T21:48:32.837Z,100.00
2019-01-21T21:50:59.966Z,100.00
2019-01-21T21:53:27.222Z,100.00
2019-01-21T21:55:54.935Z,100.00
2019-01-21T21:58:22.097Z,100.00
2019-01-21T22:00:49.247Z,100.00
2019-01-21T22:03:17.424Z,100.00
2019-01-21T22:05:44.451Z,100.00
2019-01-21T22:08:11.501Z,100.00
2019-01-21T22:10:38.610Z,100.00
2019-01-21T22:13:05.747Z,100.00
2019-01-21T22:15:32.839Z,100.00
2019-01-21T22:17:59.977Z,100.00
2019-01-21T22:20:27.206Z,100.00
2019-01-21T22:22:54.242Z,100.00
2019-01-21T22:25:21.295Z,100.00
2019-01-21T22:27:48.353Z,100.00
2019-01-21T22:30:20.366Z,100.00
2019-01-21T22:32:47.593Z,100.00
2019-01-21T22:35:14.767Z,100.00
2019-01-21T22:37:41.906Z,100.00
2019-01-21T22:40:11.771Z,100.00
2019-01-21T22:42:38.880Z,100.00
2019-01-21T22:45:07.442Z,100.00
2019-01-21T22:47:34.860Z,100.00
2019-01-21T22:50:02.432Z,100.00
2019-01-21T22:52:29.669Z,100.00
2019-01-21T22:54:56.770Z,100.00
2019-01-21T22:57:23.906Z,100.00
2019-01-21T22:59:51.003Z,100.00
2019-01-21T23:02:18.471Z,100.00
2019-01-21T23:04:45.510Z,100.00
2019-01-21T23:07:13.012Z,100.00
2019-01-21T23:09:41.250Z,100.00
2019-01-21T23:12:08.294Z,100.00
2019-01-21T23:14:35.395Z,100.00
2019-01-21T23:17:02.783Z,100.00
2019-01-21T23:19:29.846Z,100.00
2019-01-21T23:21:57.202Z,100.00
2019-01-21T23:24:24.305Z,100.00
2019-01-21T23:26:51.354Z,100.00
2019-01-21T23:29:18.484Z,100.00
2019-01-21T23:31:45.673Z,100.00
2019-01-21T23:34:12.707Z,100.00
2019-01-21T23:36:39.750Z,100.00
2019-01-21T23:39:07.594Z,100.00
2019-01-21T23:41:34.740Z,100.00
2019-01-21T23:44:01.835Z,100.00
2019-01-21T23:46:28.888Z,100.00
2019-01-21T23:48:56.077Z,100.00
2019-01-21T23:51:23.344Z,100.00
2019-01-21T23:53:50.428Z,100.00
2019-01-21T23:56:17.520Z,100.00
2019-01-21T23:58:44.698Z,100.00
